»·PEaware :: PAIN20 KEND-KEND

PAIN20 :: KEND-KEND

FLIGHT INFORMATION

Flight Status: Arrived
Operator: Unknown
More flights by this operator :: More flights under this callsign
Pilot: C. V. (21273)
Aircraft: BEECH AIRCRAFT T-6A TEXAN
(TEX2)
More flights by this aircraft type
Origin: KEND Vance AFB
United States
Destination: KEND Vance AFB
United States
More flights between these airports :: More routes between these airports
Route: +NL - DG - NTA CHEROKEE
File this flight plan on PilotEdge
Remarks:
Altitude:
(Current/Filed)
0ft
Speed:
(Current/Filed)
0kts
Departed: 30-Mar-20 10:53 AM
Arrived: 30-Mar-20 11:43 AM
Distance/Time
Traveled:
0nm/0:50
Distance/Time
To Go:
Arrived

Flight Plot

Page will automatically refresh every two minutes.


Map Options




Map Legend


Flown Route
Filed Route
Departure Airport
Arrival Airport
Navaid (VOR, NDB)
Fix

Horizontal Profiles

Position Reports

Time Latitude Longitude Heading Altitude Ground
Speed
30-Mar-20 10:51 36.297394 -97.906907 175 3409ft 172kts
30-Mar-20 10:52 36.245067 -97.899705 162 5083ft 217kts
30-Mar-20 10:53 36.274197 -97.859464 332 4963ft 240kts
30-Mar-20 10:54 36.339112 -97.897912 330 5028ft 245kts
30-Mar-20 10:55 36.407628 -97.906190 6 6948ft 197kts
30-Mar-20 10:56 36.458273 -97.901624 6 10804ft 194kts
30-Mar-20 10:57 36.516020 -97.896841 0 13019ft 228kts
30-Mar-20 10:58 36.587697 -97.896883 3 13131ft 258kts
30-Mar-20 10:59 36.667437 -97.899592 355 10685ft 292kts
30-Mar-20 11:00 36.750856 -97.904264 23 8774ft 260kts
30-Mar-20 11:01 36.767708 -97.923931 0 8937ft 224kts
30-Mar-20 11:02 36.804359 -97.920197 219 10977ft 123kts
30-Mar-20 11:03 36.781122 -97.914152 179 8018ft 233kts
30-Mar-20 11:04 36.811321 -97.923336 357 9201ft 218kts
30-Mar-20 11:05 36.790440 -97.916965 180 9142ft 130kts
30-Mar-20 11:06 36.777448 -97.900298 39 8746ft 131kts
30-Mar-20 11:07 36.766198 -97.880192 183 8353ft 135kts
30-Mar-20 11:08 36.732246 -97.872788 93 8796ft 185kts
30-Mar-20 11:09 36.733123 -97.866836 63 8458ft 187kts
30-Mar-20 11:10 36.724698 -97.878929 275 6852ft 160kts
30-Mar-20 11:11 36.732599 -97.942804 279 4963ft 161kts
30-Mar-20 11:12 36.738060 -97.995481 274 4979ft 166kts
30-Mar-20 11:13 36.758307 -98.055150 330 2377ft 222kts
30-Mar-20 11:14 36.810844 -98.076919 272 2371ft 184kts
30-Mar-20 11:15 36.784111 -98.122016 183 2320ft 194kts
30-Mar-20 11:16 36.739113 -98.110608 52 2458ft 179kts
30-Mar-20 11:17 36.755745 -98.120717 210 1621ft 106kts
30-Mar-20 11:18 36.727334 -98.124430 182 1515ft 144kts
30-Mar-20 11:19 36.743207 -98.107998 3 2210ft 115kts
30-Mar-20 11:20 36.752420 -98.122515 191 1435ft 110kts
30-Mar-20 11:21 36.720409 -98.124616 180 1809ft 173kts
30-Mar-20 11:22 36.686257 -98.149873 295 3639ft 203kts
30-Mar-20 11:23 36.724201 -98.210402 287 3510ft 232kts
30-Mar-20 11:24 36.742547 -98.289906 273 2376ft 235kts
30-Mar-20 11:25 36.786824 -98.332636 358 2572ft 213kts
30-Mar-20 11:26 36.821169 -98.344804 243 2188ft 106kts
30-Mar-20 11:27 36.795111 -98.358337 179 1255ft 104kts
30-Mar-20 11:28 36.753200 -98.352923 139 3301ft 187kts
30-Mar-20 11:29 36.727784 -98.290765 112 5988ft 213kts
30-Mar-20 11:30 36.704925 -98.209169 110 5951ft 256kts
30-Mar-20 11:31 36.684363 -98.119600 105 5947ft 264kts
30-Mar-20 11:32 36.669028 -98.028263 91 5917ft 268kts
30-Mar-20 11:33 36.666463 -97.934228 91 6020ft 263kts
30-Mar-20 11:34 36.664153 -97.839917 91 6008ft 263kts
30-Mar-20 11:35 36.604111 -97.808975 176 5049ft 269kts
30-Mar-20 11:36 36.534121 -97.811988 220 2403ft 252kts
30-Mar-20 11:37 36.489321 -97.868018 237 2392ft 214kts
30-Mar-20 11:38 36.448285 -97.907107 183 2326ft 204kts
30-Mar-20 11:39 36.391020 -97.907963 189 2314ft 205kts
30-Mar-20 11:40 36.338647 -97.902326 82 2384ft 187kts
30-Mar-20 11:41 36.357143 -97.908944 206 1671ft 109kts
30-Mar-20 11:42 36.336762 -97.910950 178 1289ft 32kts

Navigation Log

Ident Type
Flight plan parsing failed, navigation log unavailable